createdAt,value
2023-03-14T00:01:59.796Z,1.38
2023-03-14T00:04:26.155Z,1.38
2023-03-14T00:06:52.482Z,1.90
2023-03-14T00:09:18.875Z,1.92
2023-03-14T00:11:45.333Z,1.55
2023-03-14T00:14:11.625Z,1.55
2023-03-14T00:16:37.937Z,1.70
2023-03-14T00:19:04.307Z,1.90
2023-03-14T00:21:30.645Z,1.50
2023-03-14T00:23:56.995Z,1.20
2023-03-14T00:26:23.410Z,1.63
2023-03-14T00:28:52.663Z,1.83
2023-03-14T00:31:19.029Z,1.80
2023-03-14T00:33:45.940Z,1.50
2023-03-14T00:36:14.217Z,1.73
2023-03-14T00:38:41.586Z,1.90
2023-03-14T00:41:12.417Z,2.25
2023-03-14T00:43:39.073Z,2.42
2023-03-14T00:46:06.136Z,2.83
2023-03-14T00:48:32.522Z,2.60
2023-03-14T00:50:59.089Z,2.20
2023-03-14T00:53:25.454Z,2.83
2023-03-14T00:55:51.810Z,2.80
2023-03-14T00:58:19.042Z,2.83
2023-03-14T01:00:45.890Z,2.60
2023-03-14T01:03:12.726Z,3.25
2023-03-14T01:05:39.332Z,2.53
2023-03-14T01:08:06.185Z,2.50
2023-03-14T01:10:32.633Z,2.25
2023-03-14T01:12:59.066Z,2.15
2023-03-14T01:15:25.415Z,2.40
2023-03-14T01:17:51.738Z,2.22
2023-03-14T01:20:18.252Z,1.98
2023-03-14T01:22:45.314Z,2.33
2023-03-14T01:25:13.762Z,2.50
2023-03-14T01:27:40.145Z,2.20
2023-03-14T01:30:06.909Z,2.20
2023-03-14T01:32:33.236Z,2.42
2023-03-14T01:34:59.618Z,2.22
2023-03-14T01:37:26.004Z,2.17
2023-03-14T01:39:52.428Z,2.22
2023-03-14T01:42:18.780Z,1.77
2023-03-14T01:44:55.848Z,2.33
2023-03-14T01:47:22.657Z,2.08
2023-03-14T01:49:51.367Z,1.88
2023-03-14T01:52:19.515Z,2.33
2023-03-14T01:54:49.024Z,1.85
2023-03-14T01:57:18.264Z,1.58
2023-03-14T01:59:47.824Z,2.10
2023-03-14T02:02:15.385Z,1.67
2023-03-14T02:04:42.274Z,2.50
2023-03-14T02:07:18.005Z,1.95
2023-03-14T02:09:44.956Z,1.95
2023-03-14T02:12:12.487Z,1.70
2023-03-14T02:14:39.066Z,1.77
2023-03-14T02:17:06.407Z,1.70
2023-03-14T02:19:37.822Z,1.50
2023-03-14T02:22:07.298Z,2.47
2023-03-14T02:24:56.671Z,2.05
2023-03-14T02:27:23.119Z,2.00
2023-03-14T02:29:51.787Z,1.45
2023-03-14T02:32:18.816Z,2.28
2023-03-14T02:34:47.427Z,1.67
2023-03-14T02:37:15.686Z,2.10
2023-03-14T02:39:43.715Z,2.05
2023-03-14T02:42:10.128Z,1.20
2023-03-14T02:44:36.612Z,1.60
2023-03-14T02:47:03.973Z,1.70
2023-03-14T02:49:31.166Z,1.40
2023-03-14T02:51:57.623Z,1.42
2023-03-14T02:54:23.958Z,1.92
2023-03-14T02:56:50.275Z,2.10
2023-03-14T02:59:16.635Z,2.42
2023-03-14T03:01:43.034Z,1.45
2023-03-14T03:04:09.551Z,1.75
2023-03-14T03:06:35.912Z,2.03
2023-03-14T03:09:02.310Z,1.10
2023-03-14T03:11:28.801Z,1.80
2023-03-14T03:13:55.187Z,1.52
2023-03-14T03:16:21.567Z,1.65
2023-03-14T03:18:47.907Z,2.13
2023-03-14T03:21:14.285Z,1.60
2023-03-14T03:23:40.610Z,1.60
2023-03-14T03:26:07.054Z,1.95
2023-03-14T03:28:33.461Z,1.65
2023-03-14T03:30:59.816Z,2.20
2023-03-14T03:33:26.185Z,1.67
2023-03-14T03:35:53.313Z,1.52
2023-03-14T03:38:21.130Z,2.25
2023-03-14T03:40:47.581Z,1.60
2023-03-14T03:43:13.914Z,2.33
2023-03-14T03:45:40.295Z,2.53
2023-03-14T03:48:06.853Z,1.85
2023-03-14T03:50:33.232Z,1.80
2023-03-14T03:52:59.566Z,2.28
2023-03-14T03:55:26.766Z,1.65
2023-03-14T03:57:53.417Z,2.10
2023-03-14T04:00:19.836Z,1.67
2023-03-14T04:02:46.306Z,1.98
2023-03-14T04:05:12.844Z,1.88
2023-03-14T04:07:39.236Z,1.75
2023-03-14T04:10:05.753Z,2.17
2023-03-14T04:12:32.143Z,1.30
2023-03-14T04:14:58.474Z,1.67
2023-03-14T04:17:24.890Z,1.63
2023-03-14T04:19:52.460Z,1.88
2023-03-14T04:22:18.968Z,1.30
2023-03-14T04:24:45.383Z,2.00
2023-03-14T04:27:11.758Z,1.95
2023-03-14T04:29:38.090Z,1.23
2023-03-14T04:32:04.509Z,1.60
2023-03-14T04:34:30.830Z,1.70
2023-03-14T04:36:57.229Z,1.80
2023-03-14T04:39:23.566Z,2.05
2023-03-14T04:41:49.929Z,1.70
2023-03-14T04:44:16.243Z,1.63
2023-03-14T04:46:42.701Z,1.55
2023-03-14T04:49:09.091Z,1.63
2023-03-14T04:51:35.417Z,1.25
2023-03-14T04:54:01.843Z,1.33
2023-03-14T04:56:28.663Z,2.20
2023-03-14T04:58:55.001Z,1.58
2023-03-14T05:01:21.479Z,1.63
2023-03-14T05:03:47.913Z,1.33
2023-03-14T05:06:14.258Z,1.42
2023-03-14T05:08:40.647Z,1.30
2023-03-14T05:11:07.115Z,1.35
2023-03-14T05:13:33.464Z,1.60
2023-03-14T05:16:07.231Z,1.17
2023-03-14T05:18:33.767Z,1.08
2023-03-14T05:21:00.517Z,1.05
2023-03-14T05:23:27.160Z,1.38
2023-03-14T05:25:53.552Z,1.10
2023-03-14T05:28:19.975Z,0.98
2023-03-14T05:30:46.326Z,1.25
2023-03-14T05:33:12.648Z,0.82
2023-03-14T05:35:39.081Z,0.90
2023-03-14T05:38:05.430Z,1.10
2023-03-14T05:40:31.908Z,1.05
2023-03-14T05:42:58.284Z,0.80
2023-03-14T05:45:24.590Z,1.73
2023-03-14T05:47:50.906Z,0.90
2023-03-14T05:50:17.290Z,1.30
2023-03-14T05:52:43.736Z,1.08
2023-03-14T05:55:10.114Z,0.73
2023-03-14T05:57:36.570Z,0.68
2023-03-14T06:00:03.339Z,0.75
2023-03-14T06:02:29.770Z,0.68
2023-03-14T06:04:56.122Z,0.82
2023-03-14T06:07:22.428Z,0.70
2023-03-14T06:09:48.725Z,0.73
2023-03-14T06:12:15.092Z,0.70
2023-03-14T06:14:41.409Z,0.95
2023-03-14T06:17:07.730Z,0.63
2023-03-14T06:19:34.150Z,0.50
2023-03-14T06:22:00.446Z,0.50
2023-03-14T06:24:26.836Z,0.63
2023-03-14T06:26:53.154Z,0.45
2023-03-14T06:29:19.569Z,0.65
2023-03-14T06:31:45.905Z,0.88
2023-03-14T06:34:12.256Z,0.85
2023-03-14T06:36:38.584Z,0.50
2023-03-14T06:39:04.993Z,0.65
2023-03-14T06:41:31.423Z,0.65
2023-03-14T06:43:57.742Z,0.73
2023-03-14T06:46:24.105Z,0.60
2023-03-14T06:48:50.582Z,0.60
2023-03-14T06:51:16.977Z,1.15
2023-03-14T06:53:43.270Z,0.40
2023-03-14T06:56:09.835Z,0.93
2023-03-14T06:58:36.307Z,0.68
2023-03-14T07:01:02.958Z,0.82
2023-03-14T07:03:29.370Z,0.88
2023-03-14T07:05:55.806Z,0.52
2023-03-14T07:08:22.140Z,1.10
2023-03-14T07:10:48.430Z,0.60
2023-03-14T07:13:14.751Z,0.55
2023-03-14T07:15:41.113Z,0.90
2023-03-14T07:18:07.491Z,0.75
2023-03-14T07:20:33.882Z,0.65
2023-03-14T07:23:01.129Z,0.80
2023-03-14T07:25:27.556Z,0.80
2023-03-14T07:27:54.005Z,0.90
2023-03-14T07:30:20.467Z,0.60
2023-03-14T07:32:46.906Z,0.77
2023-03-14T07:35:13.321Z,0.65
2023-03-14T07:37:39.657Z,0.95
2023-03-14T07:40:08.094Z,0.60
2023-03-14T07:42:34.565Z,1.00
2023-03-14T07:45:00.905Z,1.20
2023-03-14T07:47:27.246Z,0.88
2023-03-14T07:49:53.557Z,1.33
2023-03-14T07:52:19.883Z,1.58
2023-03-14T07:54:46.193Z,1.60
2023-03-14T07:57:12.558Z,0.82
2023-03-14T07:59:38.900Z,0.70
2023-03-14T08:02:10.550Z,1.05
2023-03-14T08:04:37.678Z,1.13
2023-03-14T08:07:04.056Z,1.17
2023-03-14T08:09:30.508Z,0.90
2023-03-14T08:11:58.716Z,1.00
2023-03-14T08:14:25.162Z,0.82
2023-03-14T08:16:51.849Z,0.70
2023-03-14T08:19:18.209Z,0.85
2023-03-14T08:21:44.535Z,0.75
2023-03-14T08:24:11.030Z,0.93
2023-03-14T08:26:37.881Z,0.95
2023-03-14T08:29:05.438Z,0.75
2023-03-14T08:31:31.857Z,0.55
2023-03-14T08:34:01.118Z,1.00
2023-03-14T08:36:27.563Z,0.70
2023-03-14T08:38:54.106Z,0.80
2023-03-14T08:41:20.752Z,0.77
2023-03-14T08:43:47.109Z,0.82
2023-03-14T08:46:13.555Z,1.23
2023-03-14T08:48:39.891Z,1.10
2023-03-14T08:51:07.334Z,1.35
2023-03-14T08:53:33.820Z,1.42
2023-03-14T08:56:00.265Z,0.77
2023-03-14T08:58:26.679Z,1.58
2023-03-14T09:00:53.170Z,2.00
2023-03-14T09:03:19.671Z,1.67
2023-03-14T09:05:46.128Z,1.40
2023-03-14T09:08:12.525Z,1.73
2023-03-14T09:10:39.565Z,1.80
2023-03-14T09:13:06.102Z,1.67
2023-03-14T09:15:32.950Z,1.27
2023-03-14T09:17:59.360Z,1.67
2023-03-14T09:20:25.783Z,2.17
2023-03-14T09:22:52.178Z,2.75
2023-03-14T09:25:18.576Z,1.80
2023-03-14T09:27:44.967Z,2.00
2023-03-14T09:30:11.771Z,2.05
2023-03-14T09:32:38.203Z,1.73
2023-03-14T09:35:04.847Z,1.52
2023-03-14T09:37:31.165Z,1.58
2023-03-14T09:39:57.503Z,1.63
2023-03-14T09:42:26.291Z,1.45
2023-03-14T09:44:58.450Z,2.08
2023-03-14T09:47:26.039Z,2.03
2023-03-14T09:49:53.149Z,2.00
2023-03-14T09:52:27.826Z,2.00
2023-03-14T09:54:57.577Z,2.45
2023-03-14T09:57:27.790Z,2.10
2023-03-14T09:59:59.678Z,2.10
2023-03-14T10:02:36.228Z,2.65
2023-03-14T10:05:07.294Z,2.97
2023-03-14T10:07:34.251Z,2.20
2023-03-14T10:10:01.471Z,2.88
2023-03-14T10:12:35.051Z,2.40
2023-03-14T10:15:06.023Z,2.40
2023-03-14T10:17:38.777Z,2.42
2023-03-14T10:20:05.263Z,3.97
2023-03-14T10:22:32.205Z,2.05
2023-03-14T10:25:02.153Z,2.67
2023-03-14T10:27:30.458Z,2.55
2023-03-14T10:29:59.847Z,3.33
2023-03-14T10:32:46.720Z,3.55
2023-03-14T10:35:16.363Z,2.92
2023-03-14T10:37:53.292Z,3.20
2023-03-14T10:40:20.546Z,2.13
2023-03-14T10:42:48.696Z,2.25
2023-03-14T10:45:27.227Z,3.60
2023-03-14T10:47:53.550Z,2.40
2023-03-14T10:50:29.929Z,2.47
2023-03-14T10:53:02.426Z,2.20
2023-03-14T10:55:39.878Z,2.22
2023-03-14T10:58:06.415Z,1.73
2023-03-14T11:00:34.198Z,2.50
2023-03-14T11:03:03.843Z,2.30
2023-03-14T11:05:50.535Z,2.05
2023-03-14T11:08:19.649Z,1.77
2023-03-14T11:10:49.280Z,1.88
2023-03-14T11:13:24.735Z,2.00
2023-03-14T11:16:02.873Z,2.03
2023-03-14T11:18:48.634Z,1.48
2023-03-14T11:21:15.046Z,1.85
2023-03-14T11:24:00.356Z,2.08
2023-03-14T11:26:32.639Z,1.65
2023-03-14T11:29:03.186Z,1.30
2023-03-14T11:31:30.583Z,2.75
2023-03-14T11:34:13.631Z,1.70
2023-03-14T11:36:42.226Z,1.88
2023-03-14T11:39:13.030Z,2.10
2023-03-14T11:41:41.031Z,1.95
2023-03-14T11:44:28.424Z,3.00
2023-03-14T11:47:03.810Z,1.67
2023-03-14T11:49:47.539Z,2.53
2023-03-14T11:52:21.118Z,2.22
2023-03-14T11:54:48.130Z,2.13
2023-03-14T11:57:18.992Z,1.45
2023-03-14T12:00:05.785Z,1.48
2023-03-14T12:02:46.647Z,2.08
2023-03-14T12:05:28.097Z,1.75
2023-03-14T12:08:14.709Z,1.50
2023-03-14T12:10:46.569Z,1.85
2023-03-14T12:13:14.110Z,1.60
2023-03-14T12:15:42.164Z,1.20
2023-03-14T12:18:35.412Z,1.98
2023-03-14T12:21:03.710Z,1.77
2023-03-14T12:23:37.477Z,1.52
2023-03-14T12:26:12.924Z,1.48
2023-03-14T12:29:00.189Z,1.85
2023-03-14T12:31:29.461Z,1.50
2023-03-14T12:34:04.351Z,2.00
2023-03-14T12:36:49.621Z,1.20
2023-03-14T12:39:19.075Z,2.10
2023-03-14T12:41:47.356Z,1.13
2023-03-14T12:44:32.311Z,0.90
2023-03-14T12:46:59.565Z,1.08
2023-03-14T12:49:32.975Z,1.85
2023-03-14T12:52:00.251Z,1.45
2023-03-14T12:54:31.168Z,1.13
2023-03-14T12:57:06.056Z,1.30
2023-03-14T12:59:32.397Z,2.60
2023-03-14T13:02:07.858Z,0.82
2023-03-14T13:04:40.528Z,1.02
2023-03-14T13:07:11.915Z,0.95
2023-03-14T13:09:52.058Z,1.27
2023-03-14T13:12:18.944Z,1.13
2023-03-14T13:14:46.558Z,1.52
2023-03-14T13:17:33.554Z,0.77
2023-03-14T13:20:03.476Z,1.33
2023-03-14T13:22:31.428Z,1.17
2023-03-14T13:25:01.794Z,1.55
2023-03-14T13:27:28.147Z,1.33
2023-03-14T13:29:54.512Z,1.00
2023-03-14T13:32:22.715Z,1.30
2023-03-14T13:34:49.810Z,1.30
2023-03-14T13:37:17.705Z,1.30
2023-03-14T13:39:45.206Z,1.17
2023-03-14T13:42:15.667Z,1.50
2023-03-14T13:44:42.087Z,1.27
2023-03-14T13:47:14.361Z,1.17
2023-03-14T13:49:40.791Z,1.30
2023-03-14T13:52:22.926Z,1.02
2023-03-14T13:54:53.297Z,1.70
2023-03-14T13:57:20.796Z,1.40
2023-03-14T13:59:59.374Z,1.92
2023-03-14T14:02:26.762Z,0.68
2023-03-14T14:04:53.328Z,1.00
2023-03-14T14:07:19.771Z,2.08
2023-03-14T14:09:51.499Z,1.25
2023-03-14T14:12:17.932Z,0.80
2023-03-14T14:14:47.980Z,1.65
2023-03-14T14:17:17.503Z,0.90
2023-03-14T14:19:44.859Z,1.75
2023-03-14T14:22:11.846Z,1.65
2023-03-14T14:24:38.592Z,1.83
2023-03-14T14:27:18.542Z,1.48
2023-03-14T14:29:46.571Z,1.10
2023-03-14T14:32:14.371Z,1.10
2023-03-14T14:34:41.215Z,1.27
2023-03-14T14:37:28.199Z,1.52
2023-03-14T14:39:58.482Z,0.95
2023-03-14T14:42:31.983Z,0.90
2023-03-14T14:44:59.364Z,0.95
2023-03-14T14:47:26.566Z,1.70
2023-03-14T14:49:54.984Z,1.40
2023-03-14T14:52:22.685Z,0.82
2023-03-14T14:54:55.484Z,1.00
2023-03-14T14:57:24.532Z,1.27
2023-03-14T14:59:53.629Z,1.33
2023-03-14T15:02:31.367Z,1.35
2023-03-14T15:04:57.785Z,0.85
2023-03-14T15:07:24.930Z,1.15
2023-03-14T15:09:51.921Z,1.00
2023-03-14T15:12:18.239Z,0.90
2023-03-14T15:14:44.578Z,0.95
2023-03-14T15:17:11.901Z,1.13
2023-03-14T15:19:38.911Z,1.70
2023-03-14T15:22:07.269Z,1.10
2023-03-14T15:24:33.646Z,0.70
2023-03-14T15:27:04.638Z,0.88
2023-03-14T15:29:30.960Z,1.27
2023-03-14T15:31:57.477Z,1.05
2023-03-14T15:34:23.856Z,0.80
2023-03-14T15:36:52.078Z,1.20
2023-03-14T15:39:18.414Z,0.90
2023-03-14T15:41:44.927Z,1.27
2023-03-14T15:44:11.221Z,0.68
2023-03-14T15:46:37.639Z,0.93
2023-03-14T15:49:04.053Z,0.70
2023-03-14T15:51:30.386Z,0.80
2023-03-14T15:53:56.801Z,1.30
2023-03-14T15:56:25.909Z,1.55
2023-03-14T15:58:52.735Z,2.28
2023-03-14T16:01:19.575Z,1.27
2023-03-14T16:03:46.398Z,1.45
2023-03-14T16:06:13.325Z,1.38
2023-03-14T16:08:39.696Z,1.17
2023-03-14T16:11:06.211Z,2.58
2023-03-14T16:13:33.356Z,1.20
2023-03-14T16:16:03.871Z,1.15
2023-03-14T16:18:31.858Z,0.68
2023-03-14T16:20:59.332Z,1.10
2023-03-14T16:23:25.807Z,2.20
2023-03-14T16:25:52.677Z,1.65
2023-03-14T16:28:19.107Z,1.65
2023-03-14T16:30:45.527Z,2.00
2023-03-14T16:33:12.794Z,1.15
2023-03-14T16:35:42.682Z,1.23
2023-03-14T16:38:09.254Z,1.35
2023-03-14T16:40:35.670Z,1.00
2023-03-14T16:43:15.665Z,1.00
2023-03-14T16:45:42.802Z,1.35
2023-03-14T16:48:09.249Z,1.27
2023-03-14T16:50:35.604Z,1.10
2023-03-14T16:53:02.673Z,1.00
2023-03-14T16:55:29.197Z,0.85
2023-03-14T16:57:55.525Z,1.25
2023-03-14T17:00:22.315Z,0.98
2023-03-14T17:02:48.742Z,1.10
2023-03-14T17:05:15.106Z,1.45
2023-03-14T17:07:41.576Z,1.17
2023-03-14T17:10:08.549Z,1.70
2023-03-14T17:12:34.835Z,1.52
2023-03-14T17:15:01.211Z,1.45
2023-03-14T17:17:27.567Z,1.17
2023-03-14T17:19:53.911Z,1.05
2023-03-14T17:22:25.997Z,1.42
2023-03-14T17:24:54.546Z,1.25
2023-03-14T17:27:21.309Z,2.28
2023-03-14T17:29:48.534Z,1.15
2023-03-14T17:32:15.774Z,1.38
2023-03-14T17:34:42.252Z,1.20
2023-03-14T17:37:08.709Z,1.38
2023-03-14T17:39:35.208Z,1.00
2023-03-14T17:42:01.518Z,1.88
2023-03-14T17:44:27.918Z,1.00
2023-03-14T17:46:55.566Z,1.05
2023-03-14T17:49:21.926Z,1.40
2023-03-14T17:51:48.239Z,1.80
2023-03-14T17:54:14.689Z,1.08
2023-03-14T17:56:43.822Z,0.88
2023-03-14T17:59:11.018Z,1.48
2023-03-14T18:01:37.807Z,1.27
2023-03-14T18:04:04.335Z,1.63
2023-03-14T18:06:31.490Z,1.25
2023-03-14T18:08:58.559Z,1.40
2023-03-14T18:11:25.520Z,2.22
2023-03-14T18:13:52.056Z,1.42
2023-03-14T18:16:19.003Z,1.60
2023-03-14T18:18:48.435Z,1.40
2023-03-14T18:21:18.211Z,1.30
2023-03-14T18:23:44.958Z,1.80
2023-03-14T18:26:11.460Z,1.42
2023-03-14T18:28:40.461Z,2.22
2023-03-14T18:31:09.144Z,1.38
2023-03-14T18:33:37.653Z,1.88
2023-03-14T18:36:04.983Z,1.77
2023-03-14T18:38:31.338Z,2.05
2023-03-14T18:41:03.887Z,1.40
2023-03-14T18:43:30.524Z,1.63
2023-03-14T18:45:57.787Z,2.47
2023-03-14T18:48:25.126Z,2.35
2023-03-14T18:50:51.520Z,2.28
2023-03-14T18:53:18.123Z,2.58
2023-03-14T18:55:44.691Z,2.33
2023-03-14T18:58:14.066Z,2.55
2023-03-14T19:00:41.388Z,1.83
2023-03-14T19:03:07.900Z,1.67
2023-03-14T19:05:34.302Z,2.40
2023-03-14T19:08:04.268Z,1.60
2023-03-14T19:10:33.389Z,2.05
2023-03-14T19:12:59.803Z,1.60
2023-03-14T19:15:26.272Z,1.90
2023-03-14T19:17:52.727Z,2.10
2023-03-14T19:20:19.049Z,2.10
2023-03-14T19:22:45.691Z,2.30
2023-03-14T19:25:12.121Z,1.20
2023-03-14T19:27:38.996Z,1.40
2023-03-14T19:30:05.772Z,1.38
2023-03-14T19:32:32.211Z,1.42
2023-03-14T19:34:58.631Z,0.80
2023-03-14T19:37:25.984Z,1.27
2023-03-14T19:39:52.347Z,1.10
2023-03-14T19:42:18.687Z,0.70
2023-03-14T19:44:45.128Z,0.93
2023-03-14T19:47:11.416Z,0.93
2023-03-14T19:49:37.695Z,0.80
2023-03-14T19:52:04.218Z,1.10
2023-03-14T19:54:31.604Z,1.75
2023-03-14T19:56:58.098Z,1.52
2023-03-14T19:59:24.407Z,1.30
2023-03-14T20:01:52.509Z,1.52
2023-03-14T20:04:18.900Z,1.42
2023-03-14T20:06:45.453Z,1.20
2023-03-14T20:09:12.024Z,1.45
2023-03-14T20:11:41.460Z,1.13
2023-03-14T20:14:09.134Z,1.70
2023-03-14T20:16:37.632Z,1.30
2023-03-14T20:19:05.456Z,1.33
2023-03-14T20:21:32.007Z,1.20
2023-03-14T20:23:58.379Z,1.73
2023-03-14T20:26:24.932Z,1.30
2023-03-14T20:28:51.544Z,1.42
2023-03-14T20:31:17.995Z,1.77
2023-03-14T20:33:44.385Z,1.50
2023-03-14T20:36:11.776Z,1.20
2023-03-14T20:38:38.306Z,1.23
2023-03-14T20:41:04.989Z,1.67
2023-03-14T20:43:32.090Z,1.08
2023-03-14T20:45:59.510Z,1.63
2023-03-14T20:48:26.733Z,1.05
2023-03-14T20:50:53.741Z,1.27
2023-03-14T20:53:20.510Z,1.45
2023-03-14T20:55:46.990Z,0.80
2023-03-14T20:58:13.909Z,0.95
2023-03-14T21:00:40.808Z,1.00
2023-03-14T21:03:07.497Z,0.80
2023-03-14T21:05:36.923Z,0.80
2023-03-14T21:08:03.407Z,0.80
2023-03-14T21:10:29.753Z,1.42
2023-03-14T21:12:56.094Z,0.52
2023-03-14T21:15:22.486Z,0.70
2023-03-14T21:17:48.773Z,0.88
2023-03-14T21:20:16.636Z,0.82
2023-03-14T21:22:43.049Z,0.38
2023-03-14T21:25:09.517Z,0.50
2023-03-14T21:27:37.904Z,0.60
2023-03-14T21:30:04.830Z,0.73
2023-03-14T21:32:31.212Z,0.80
2023-03-14T21:34:57.688Z,0.50
2023-03-14T21:37:27.444Z,0.60
2023-03-14T21:39:54.385Z,0.60
2023-03-14T21:42:21.673Z,0.75
2023-03-14T21:44:48.656Z,0.50
2023-03-14T21:47:16.122Z,0.25
2023-03-14T21:49:44.773Z,0.30
2023-03-14T21:52:12.650Z,0.30
2023-03-14T21:54:39.114Z,0.60
2023-03-14T21:57:06.043Z,0.50
2023-03-14T21:59:33.995Z,0.32
2023-03-14T22:02:02.702Z,0.50
2023-03-14T22:04:35.012Z,0.70
2023-03-14T22:07:05.674Z,0.63
2023-03-14T22:09:32.225Z,0.60
2023-03-14T22:11:58.568Z,0.77
2023-03-14T22:14:25.440Z,1.52
2023-03-14T22:16:52.605Z,0.65
2023-03-14T22:19:19.292Z,0.77
2023-03-14T22:21:45.993Z,0.77
2023-03-14T22:24:12.327Z,0.80
2023-03-14T22:26:38.717Z,0.60
2023-03-14T22:29:05.216Z,0.40
2023-03-14T22:31:31.575Z,0.82
2023-03-14T22:33:58.304Z,1.00
2023-03-14T22:36:24.713Z,0.70
2023-03-14T22:38:51.376Z,0.60
2023-03-14T22:41:17.851Z,0.70
2023-03-14T22:43:44.430Z,0.60
2023-03-14T22:46:10.895Z,0.45
2023-03-14T22:48:37.237Z,0.85
2023-03-14T22:51:07.478Z,0.60
2023-03-14T22:53:33.819Z,0.60
2023-03-14T22:56:00.902Z,0.80
2023-03-14T22:58:27.513Z,0.60
2023-03-14T23:00:53.922Z,0.52
2023-03-14T23:03:20.807Z,0.55
2023-03-14T23:05:47.321Z,0.50
2023-03-14T23:08:13.814Z,0.20
2023-03-14T23:10:40.728Z,0.32
2023-03-14T23:13:07.357Z,0.55
2023-03-14T23:15:34.131Z,0.17
2023-03-14T23:18:00.927Z,0.30
2023-03-14T23:20:27.964Z,0.40
2023-03-14T23:22:54.274Z,0.32
2023-03-14T23:25:20.658Z,0.40
2023-03-14T23:27:46.973Z,0.60
2023-03-14T23:30:14.175Z,0.60
2023-03-14T23:32:42.783Z,0.38
2023-03-14T23:35:10.214Z,0.50
2023-03-14T23:37:36.534Z,0.28
2023-03-14T23:40:03.994Z,0.60
2023-03-14T23:42:31.439Z,0.60
2023-03-14T23:44:57.756Z,0.40
2023-03-14T23:47:24.173Z,0.30
2023-03-14T23:49:50.799Z,0.40
2023-03-14T23:52:17.156Z,0.40
2023-03-14T23:54:43.472Z,0.40
2023-03-14T23:57:10.115Z,0.95
2023-03-14T23:59:37.191Z,0.50
